Time,TemperatureF,DewpointF,PressureIn,WindDirection,WindDirectionDegrees,WindSpeedMPH,WindSpeedGustMPH,Humidity,HourlyPrecipIn,Conditions,Clouds,dailyrainin,SoftwareType,DateUTC
2015-07-31 00:14:00,64.7,62.0,29.98,NW,324,0.0,0.0,90,0.00,,,0.00,weatherlink.com 1.10,2015-07-31 04:14:00,
2015-07-31 00:29:00,64.7,62.0,29.98,NW,324,0.0,0.0,90,0.00,,,0.00,weatherlink.com 1.10,2015-07-31 04:29:00,
2015-07-31 00:44:00,64.4,62.0,29.98,NW,324,0.0,0.0,90,0.00,,,0.00,weatherlink.com 1.10,2015-07-31 04:44:00,
2015-07-31 00:59:00,64.1,61.0,29.98,NW,324,0.0,0.0,90,0.00,,,0.00,weatherlink.com 1.10,2015-07-31 04:59:00,
2015-07-31 01:15:00,63.6,61.0,29.98,NW,324,0.0,0.0,90,0.00,,,0.00,weatherlink.com 1.10,2015-07-31 05:15:00,
2015-07-31 01:44:00,63.2,61.0,29.98,NW,324,0.0,0.0,91,0.00,,,0.00,weatherlink.com 1.10,2015-07-31 05:44:00,
2015-07-31 01:59:00,63.1,61.0,29.98,NW,324,0.0,0.0,91,0.00,,,0.00,weatherlink.com 1.10,2015-07-31 05:59:00,
2015-07-31 02:14:00,62.8,61.0,29.98,NW,324,0.0,0.0,92,0.00,,,0.00,weatherlink.com 1.10,2015-07-31 06:14:00,
2015-07-31 02:29:00,62.7,60.0,29.98,NW,324,0.0,0.0,92,0.00,,,0.00,weatherlink.com 1.10,2015-07-31 06:29:00,
2015-07-31 02:44:00,62.6,60.0,29.98,NW,324,0.0,0.0,92,0.00,,,0.00,weatherlink.com 1.10,2015-07-31 06:44:00,
2015-07-31 02:59:00,62.7,60.0,29.97,NW,324,0.0,0.0,92,0.00,,,0.00,weatherlink.com 1.10,2015-07-31 06:59:00,
2015-07-31 03:14:00,62.6,61.0,29.97,NW,324,0.0,0.0,93,0.00,,,0.00,weatherlink.com 1.10,2015-07-31 07:14:00,
2015-07-31 03:29:00,62.5,61.0,29.97,NW,324,0.0,0.0,93,0.00,,,0.00,weatherlink.com 1.10,2015-07-31 07:29:00,
2015-07-31 03:45:00,62.4,60.0,29.97,NW,324,0.0,0.0,93,0.00,,,0.00,weatherlink.com 1.10,2015-07-31 07:45:00,
2015-07-31 03:59:00,62.1,60.0,29.97,NW,324,0.0,0.0,93,0.00,,,0.00,weatherlink.com 1.10,2015-07-31 07:59:00,
2015-07-31 04:14:00,62.0,60.0,29.97,NW,324,0.0,0.0,93,0.00,,,0.00,weatherlink.com 1.10,2015-07-31 08:14:00,
2015-07-31 04:29:00,62.0,60.0,29.96,NW,324,0.0,0.0,93,0.00,,,0.00,weatherlink.com 1.10,2015-07-31 08:29:00,
2015-07-31 04:44:00,61.9,60.0,29.96,NW,324,0.0,0.0,93,0.00,,,0.00,weatherlink.com 1.10,2015-07-31 08:44:00,
2015-07-31 05:00:00,62.1,60.0,29.96,NW,324,0.0,0.0,93,0.00,,,0.00,weatherlink.com 1.10,2015-07-31 09:00:00,
2015-07-31 05:15:00,62.0,60.0,29.96,NW,324,0.0,0.0,93,0.00,,,0.00,weatherlink.com 1.10,2015-07-31 09:15:00,
2015-07-31 05:30:00,61.7,60.0,29.96,NW,324,0.0,0.0,93,0.00,,,0.00,weatherlink.com 1.10,2015-07-31 09:30:00,
2015-07-31 05:45:00,61.7,60.0,29.96,NW,324,0.0,0.0,94,0.00,,,0.00,weatherlink.com 1.10,2015-07-31 09:45:00,
2015-07-31 06:00:00,61.8,60.0,29.96,NW,324,0.0,0.0,94,0.00,,,0.00,weatherlink.com 1.10,2015-07-31 10:00:00,
2015-07-31 06:15:00,61.6,60.0,29.96,NW,324,0.0,0.0,94,0.00,,,0.00,weatherlink.com 1.10,2015-07-31 10:15:00,
2015-07-31 06:30:00,61.6,60.0,29.96,NW,324,0.0,0.0,94,0.00,,,0.00,weatherlink.com 1.10,2015-07-31 10:30:00,
2015-07-31 06:45:00,61.5,60.0,29.96,NW,324,0.0,0.0,94,0.00,,,0.00,weatherlink.com 1.10,2015-07-31 10:45:00,
2015-07-31 07:00:00,61.7,60.0,29.96,NW,324,0.0,0.0,94,0.00,,,0.00,weatherlink.com 1.10,2015-07-31 11:00:00,
2015-07-31 07:15:00,62.3,61.0,29.97,NW,324,0.0,2.0,94,0.00,,,0.00,weatherlink.com 1.10,2015-07-31 11:15:00,
2015-07-31 07:30:00,63.7,62.0,29.97,NW,324,0.0,0.0,94,0.00,,,0.00,weatherlink.com 1.10,2015-07-31 11:30:00,
2015-07-31 07:45:00,65.9,64.0,29.98,NW,324,0.0,0.0,94,0.00,,,0.00,weatherlink.com 1.10,2015-07-31 11:45:00,
2015-07-31 08:15:00,68.8,65.0,29.98,NW,324,0.0,0.0,87,0.00,,,0.00,weatherlink.com 1.10,2015-07-31 12:15:00,
2015-07-31 08:30:00,69.8,64.0,29.98,NW,324,1.0,4.0,83,0.00,,,0.00,weatherlink.com 1.10,2015-07-31 12:30:00,
2015-07-31 08:45:00,70.7,65.0,29.98,NW,324,2.0,4.0,81,0.00,,,0.00,weatherlink.com 1.10,2015-07-31 12:45:00,
2015-07-31 09:00:00,71.6,65.0,29.98,NW,324,0.0,4.0,80,0.00,,,0.00,weatherlink.com 1.10,2015-07-31 13:00:00,
2015-07-31 09:15:00,72.6,65.0,29.98,NW,324,1.0,7.0,78,0.00,,,0.00,weatherlink.com 1.10,2015-07-31 13:15:00,
2015-07-31 09:45:00,74.6,67.0,29.98,NW,324,2.0,4.0,77,0.00,,,0.00,weatherlink.com 1.10,2015-07-31 13:45:00,
2015-07-31 10:00:00,75.3,67.0,29.97,NW,324,0.0,5.0,76,0.00,,,0.00,weatherlink.com 1.10,2015-07-31 14:00:00,
2015-07-31 10:15:00,76.4,68.0,29.97,NW,323,0.0,7.0,75,0.00,,,0.00,weatherlink.com 1.10,2015-07-31 14:15:00,
2015-07-31 10:30:00,77.1,67.0,29.97,West,276,3.0,7.0,72,0.00,,,0.00,weatherlink.com 1.10,2015-07-31 14:30:00,
2015-07-31 10:45:00,77.6,68.0,29.97,West,281,5.0,8.0,71,0.00,,,0.00,weatherlink.com 1.10,2015-07-31 14:45:00,
2015-07-31 11:00:00,78.4,67.0,29.97,NNW,327,1.0,7.0,68,0.00,,,0.00,weatherlink.com 1.10,2015-07-31 15:00:00,
2015-07-31 11:15:00,79.1,66.0,29.97,NNW,341,3.0,8.0,65,0.00,,,0.00,weatherlink.com 1.10,2015-07-31 15:15:00,
2015-07-31 11:31:00,79.3,67.0,29.97,NNW,343,7.0,9.0,65,0.00,,,0.00,weatherlink.com 1.10,2015-07-31 15:31:00,
2015-07-31 11:45:00,80.1,67.0,29.97,NW,310,4.0,7.0,65,0.00,,,0.00,weatherlink.com 1.10,2015-07-31 15:45:00,
2015-07-31 12:00:00,80.7,66.0,29.97,West,259,0.0,9.0,62,0.00,,,0.00,weatherlink.com 1.10,2015-07-31 16:00:00,
2015-07-31 12:16:00,80.7,64.0,29.96,NNW,340,4.0,9.0,58,0.00,,,0.00,weatherlink.com 1.10,2015-07-31 16:16:00,
2015-07-31 12:31:00,81.6,64.0,29.96,West,276,3.0,10.0,56,0.00,,,0.00,weatherlink.com 1.10,2015-07-31 16:31:00,
2015-07-31 12:46:00,81.8,65.0,29.95,NW,308,2.0,10.0,58,0.00,,,0.00,weatherlink.com 1.10,2015-07-31 16:46:00,